Archival Weather

Phoenix Sky Harbor Intl

Phoenix, Arizona (KPHX)

Report from: Thursday, December 7, 2023 5:51 AM MST
Current time: Thursday, July 18, 2024 8:34 PM MST

Current weather – Weather history – Daily summaries
Weather forecast

Temperature12.8°C (55.0°F)
Dew point2.2°C (36.0°F)
Winds 7 kts (3.6 m/s, 8.1 mph) East-Southeast (120°)
Visibility10 mi. (16.1 km)
Clouds Scattered clouds 25,000 ft. (7,620 m)
Altimeter29.98 in.Hg (1015 mB)
Relative humidity48 %
Density altitude-182 ft. (-56 m)
Sea-level pressure101.4 kPa (1014 mB, 29.95 in.Hg)
Remarks Automated weather observing station with precipitation discriminator
Flight conditions Visual Meteorological Conditions
Raw dataKPHX 071251Z 12007KT 10SM SCT250 13/02 A2998 RMK AO2 SLP141 T01280022
An error has occurred. This application may no longer respond until reloaded. Reload 🗙